sensor_id;sensor_type;location;lat;lon;timestamp;temperature;humidity
25640;DHT22;13497;48.322;16.204;2024-02-21T00:01:50;7.50;99.90
25640;DHT22;13497;48.322;16.204;2024-02-21T00:04:16;7.50;99.90
25640;DHT22;13497;48.322;16.204;2024-02-21T00:06:41;7.60;99.90
25640;DHT22;13497;48.322;16.204;2024-02-21T00:09:07;7.60;99.90
25640;DHT22;13497;48.322;16.204;2024-02-21T00:11:35;7.60;99.90
25640;DHT22;13497;48.322;16.204;2024-02-21T00:14:00;7.60;99.90
25640;DHT22;13497;48.322;16.204;2024-02-21T00:16:26;7.60;99.90
25640;DHT22;13497;48.322;16.204;2024-02-21T00:18:52;7.60;99.90
25640;DHT22;13497;48.322;16.204;2024-02-21T00:21:18;7.50;99.90
25640;DHT22;13497;48.322;16.204;2024-02-21T00:23:46;7.50;99.90
25640;DHT22;13497;48.322;16.204;2024-02-21T00:26:13;7.60;99.90
25640;DHT22;13497;48.322;16.204;2024-02-21T00:28:41;7.60;99.90
25640;DHT22;13497;48.322;16.204;2024-02-21T00:31:07;7.60;99.90
25640;DHT22;13497;48.322;16.204;2024-02-21T00:33:32;7.60;99.90
25640;DHT22;13497;48.322;16.204;2024-02-21T00:35:58;7.70;99.90
25640;DHT22;13497;48.322;16.204;2024-02-21T00:38:23;7.60;99.90
25640;DHT22;13497;48.322;16.204;2024-02-21T00:40:49;7.60;99.90
25640;DHT22;13497;48.322;16.204;2024-02-21T00:43:15;7.60;99.90
25640;DHT22;13497;48.322;16.204;2024-02-21T00:45:40;7.60;99.90
25640;DHT22;13497;48.322;16.204;2024-02-21T00:48:06;7.50;99.90
25640;DHT22;13497;48.322;16.204;2024-02-21T00:50:32;7.60;99.90
25640;DHT22;13497;48.322;16.204;2024-02-21T00:52:58;7.50;99.90
25640;DHT22;13497;48.322;16.204;2024-02-21T00:55:24;7.50;99.90
25640;DHT22;13497;48.322;16.204;2024-02-21T00:57:49;7.40;99.90
25640;DHT22;13497;48.322;16.204;2024-02-21T01:00:15;7.40;99.90
25640;DHT22;13497;48.322;16.204;2024-02-21T01:02:41;7.40;99.90
25640;DHT22;13497;48.322;16.204;2024-02-21T01:05:07;7.40;99.90
25640;DHT22;13497;48.322;16.204;2024-02-21T01:07:32;7.50;99.90
25640;DHT22;13497;48.322;16.204;2024-02-21T01:09:59;7.50;99.90
25640;DHT22;13497;48.322;16.204;2024-02-21T01:12:25;7.50;99.90
25640;DHT22;13497;48.322;16.204;2024-02-21T01:14:50;7.40;99.90
25640;DHT22;13497;48.322;16.204;2024-02-21T01:17:16;7.50;99.90
25640;DHT22;13497;48.322;16.204;2024-02-21T01:19:42;7.50;99.90
25640;DHT22;13497;48.322;16.204;2024-02-21T01:22:07;7.50;99.90
25640;DHT22;13497;48.322;16.204;2024-02-21T01:24:33;7.50;99.90
25640;DHT22;13497;48.322;16.204;2024-02-21T01:26:59;7.50;99.90
25640;DHT22;13497;48.322;16.204;2024-02-21T01:29:24;7.50;99.90
25640;DHT22;13497;48.322;16.204;2024-02-21T01:31:50;7.40;99.90
25640;DHT22;13497;48.322;16.204;2024-02-21T01:34:16;7.40;99.90
25640;DHT22;13497;48.322;16.204;2024-02-21T01:36:41;7.40;99.90
25640;DHT22;13497;48.322;16.204;2024-02-21T01:39:07;7.40;99.90
25640;DHT22;13497;48.322;16.204;2024-02-21T01:41:33;7.50;99.90
25640;DHT22;13497;48.322;16.204;2024-02-21T01:43:59;7.50;99.90
25640;DHT22;13497;48.322;16.204;2024-02-21T01:46:24;7.40;99.90
25640;DHT22;13497;48.322;16.204;2024-02-21T01:48:57;7.40;99.90
25640;DHT22;13497;48.322;16.204;2024-02-21T01:51:26;7.40;99.90
25640;DHT22;13497;48.322;16.204;2024-02-21T01:53:53;7.40;99.90
25640;DHT22;13497;48.322;16.204;2024-02-21T01:56:20;7.40;99.90
25640;DHT22;13497;48.322;16.204;2024-02-21T01:58:47;7.40;99.90
25640;DHT22;13497;48.322;16.204;2024-02-21T02:01:13;7.40;99.90
25640;DHT22;13497;48.322;16.204;2024-02-21T02:03:39;7.40;99.90
25640;DHT22;13497;48.322;16.204;2024-02-21T02:06:06;7.40;99.90
25640;DHT22;13497;48.322;16.204;2024-02-21T02:08:35;7.40;99.90
25640;DHT22;13497;48.322;16.204;2024-02-21T02:11:01;7.40;99.90
25640;DHT22;13497;48.322;16.204;2024-02-21T02:13:27;7.40;99.90
25640;DHT22;13497;48.322;16.204;2024-02-21T02:15:53;7.40;99.90
25640;DHT22;13497;48.322;16.204;2024-02-21T02:18:19;7.50;99.90
25640;DHT22;13497;48.322;16.204;2024-02-21T02:20:45;7.50;99.90
25640;DHT22;13497;48.322;16.204;2024-02-21T02:23:29;7.40;99.90
25640;DHT22;13497;48.322;16.204;2024-02-21T02:25:55;7.40;99.90
25640;DHT22;13497;48.322;16.204;2024-02-21T02:28:21;7.40;99.90
25640;DHT22;13497;48.322;16.204;2024-02-21T02:30:47;7.40;99.90
25640;DHT22;13497;48.322;16.204;2024-02-21T02:33:13;7.40;99.90
25640;DHT22;13497;48.322;16.204;2024-02-21T02:35:39;7.30;99.90
25640;DHT22;13497;48.322;16.204;2024-02-21T02:38:05;7.40;99.90
25640;DHT22;13497;48.322;16.204;2024-02-21T02:40:32;7.40;99.90
25640;DHT22;13497;48.322;16.204;2024-02-21T02:42:58;7.40;99.90
25640;DHT22;13497;48.322;16.204;2024-02-21T02:45:24;7.40;99.90
25640;DHT22;13497;48.322;16.204;2024-02-21T02:47:52;7.40;99.90
25640;DHT22;13497;48.322;16.204;2024-02-21T02:50:17;7.40;99.90
25640;DHT22;13497;48.322;16.204;2024-02-21T02:52:43;7.20;99.90
25640;DHT22;13497;48.322;16.204;2024-02-21T02:55:09;7.20;99.90
25640;DHT22;13497;48.322;16.204;2024-02-21T02:57:34;7.20;99.90
25640;DHT22;13497;48.322;16.204;2024-02-21T03:00:01;7.20;99.90
25640;DHT22;13497;48.322;16.204;2024-02-21T03:02:26;7.10;99.90
25640;DHT22;13497;48.322;16.204;2024-02-21T03:04:52;7.10;99.90
25640;DHT22;13497;48.322;16.204;2024-02-21T03:07:19;7.20;99.90
25640;DHT22;13497;48.322;16.204;2024-02-21T03:09:45;7.20;99.90
25640;DHT22;13497;48.322;16.204;2024-02-21T03:12:11;7.20;99.90
25640;DHT22;13497;48.322;16.204;2024-02-21T03:14:37;7.20;99.90
25640;DHT22;13497;48.322;16.204;2024-02-21T03:17:03;7.20;99.90
25640;DHT22;13497;48.322;16.204;2024-02-21T03:19:29;7.20;99.90
25640;DHT22;13497;48.322;16.204;2024-02-21T03:21:55;7.20;99.90
25640;DHT22;13497;48.322;16.204;2024-02-21T03:24:21;7.20;99.90
25640;DHT22;13497;48.322;16.204;2024-02-21T03:26:46;7.20;99.90
25640;DHT22;13497;48.322;16.204;2024-02-21T03:29:16;7.20;99.90
25640;DHT22;13497;48.322;16.204;2024-02-21T03:31:42;7.30;99.90
25640;DHT22;13497;48.322;16.204;2024-02-21T03:34:10;7.20;99.90
25640;DHT22;13497;48.322;16.204;2024-02-21T03:36:36;7.30;99.90
25640;DHT22;13497;48.322;16.204;2024-02-21T03:39:02;7.30;99.90
25640;DHT22;13497;48.322;16.204;2024-02-21T03:41:28;7.40;99.90
25640;DHT22;13497;48.322;16.204;2024-02-21T03:43:54;7.30;99.90
25640;DHT22;13497;48.322;16.204;2024-02-21T03:46:20;7.40;99.90
25640;DHT22;13497;48.322;16.204;2024-02-21T03:48:45;7.40;99.90
25640;DHT22;13497;48.322;16.204;2024-02-21T03:51:11;7.40;99.90
25640;DHT22;13497;48.322;16.204;2024-02-21T03:53:37;7.40;99.90
25640;DHT22;13497;48.322;16.204;2024-02-21T03:56:03;7.40;99.90
25640;DHT22;13497;48.322;16.204;2024-02-21T03:58:32;7.50;99.90
25640;DHT22;13497;48.322;16.204;2024-02-21T04:01:00;7.40;99.90
25640;DHT22;13497;48.322;16.204;2024-02-21T04:03:27;7.40;99.90
25640;DHT22;13497;48.322;16.204;2024-02-21T04:05:52;7.40;99.90
25640;DHT22;13497;48.322;16.204;2024-02-21T04:08:18;7.40;99.90
25640;DHT22;13497;48.322;16.204;2024-02-21T04:10:43;7.40;99.90
25640;DHT22;13497;48.322;16.204;2024-02-21T04:13:09;7.30;99.90
25640;DHT22;13497;48.322;16.204;2024-02-21T04:15:35;7.30;99.90
25640;DHT22;13497;48.322;16.204;2024-02-21T04:18:01;7.30;99.90
25640;DHT22;13497;48.322;16.204;2024-02-21T04:20:28;7.30;99.90
25640;DHT22;13497;48.322;16.204;2024-02-21T04:22:54;7.30;99.90
25640;DHT22;13497;48.322;16.204;2024-02-21T04:25:20;7.30;99.90
25640;DHT22;13497;48.322;16.204;2024-02-21T04:27:45;7.20;99.90
25640;DHT22;13497;48.322;16.204;2024-02-21T04:30:11;7.20;99.90
25640;DHT22;13497;48.322;16.204;2024-02-21T04:32:37;7.30;99.90
25640;DHT22;13497;48.322;16.204;2024-02-21T04:35:04;7.30;99.90
25640;DHT22;13497;48.322;16.204;2024-02-21T04:37:29;7.30;99.90
25640;DHT22;13497;48.322;16.204;2024-02-21T04:39:56;7.30;99.90
25640;DHT22;13497;48.322;16.204;2024-02-21T04:42:21;7.40;99.90
25640;DHT22;13497;48.322;16.204;2024-02-21T04:44:47;7.30;99.90
25640;DHT22;13497;48.322;16.204;2024-02-21T04:47:13;7.30;99.90
25640;DHT22;13497;48.322;16.204;2024-02-21T04:49:38;7.20;99.90
25640;DHT22;13497;48.322;16.204;2024-02-21T04:52:04;7.20;99.90
25640;DHT22;13497;48.322;16.204;2024-02-21T04:54:30;7.30;99.90
25640;DHT22;13497;48.322;16.204;2024-02-21T04:56:55;7.30;99.90
25640;DHT22;13497;48.322;16.204;2024-02-21T04:59:21;7.30;99.90
25640;DHT22;13497;48.322;16.204;2024-02-21T05:01:47;7.30;99.90
25640;DHT22;13497;48.322;16.204;2024-02-21T05:04:13;7.30;99.90
25640;DHT22;13497;48.322;16.204;2024-02-21T05:06:39;7.30;99.90
25640;DHT22;13497;48.322;16.204;2024-02-21T05:09:06;7.30;99.90
25640;DHT22;13497;48.322;16.204;2024-02-21T05:11:32;7.30;99.90
25640;DHT22;13497;48.322;16.204;2024-02-21T05:13:57;7.30;99.90
25640;DHT22;13497;48.322;16.204;2024-02-21T05:16:23;7.30;99.90
25640;DHT22;13497;48.322;16.204;2024-02-21T05:18:49;7.30;99.90
25640;DHT22;13497;48.322;16.204;2024-02-21T05:21:14;7.40;99.90
25640;DHT22;13497;48.322;16.204;2024-02-21T05:23:40;7.30;99.90
25640;DHT22;13497;48.322;16.204;2024-02-21T05:26:06;7.40;99.90
25640;DHT22;13497;48.322;16.204;2024-02-21T05:28:32;7.40;99.90
25640;DHT22;13497;48.322;16.204;2024-02-21T05:30:58;7.40;99.90
25640;DHT22;13497;48.322;16.204;2024-02-21T05:33:24;7.40;99.90
25640;DHT22;13497;48.322;16.204;2024-02-21T05:35:50;7.40;99.90
25640;DHT22;13497;48.322;16.204;2024-02-21T05:38:16;7.40;99.90
25640;DHT22;13497;48.322;16.204;2024-02-21T05:40:42;7.30;99.90
25640;DHT22;13497;48.322;16.204;2024-02-21T05:43:08;7.30;99.90
25640;DHT22;13497;48.322;16.204;2024-02-21T05:45:34;7.30;99.90
25640;DHT22;13497;48.322;16.204;2024-02-21T05:48:00;7.30;99.90
25640;DHT22;13497;48.322;16.204;2024-02-21T05:50:26;7.20;99.90
25640;DHT22;13497;48.322;16.204;2024-02-21T05:52:54;7.20;99.90
25640;DHT22;13497;48.322;16.204;2024-02-21T05:55:21;7.30;99.90
25640;DHT22;13497;48.322;16.204;2024-02-21T05:57:47;7.30;99.90
25640;DHT22;13497;48.322;16.204;2024-02-21T06:00:13;7.20;99.90
25640;DHT22;13497;48.322;16.204;2024-02-21T06:02:39;7.30;99.90
25640;DHT22;13497;48.322;16.204;2024-02-21T06:05:06;7.30;99.90
25640;DHT22;13497;48.322;16.204;2024-02-21T06:07:33;7.40;99.90
25640;DHT22;13497;48.322;16.204;2024-02-21T06:10:00;7.30;99.90
25640;DHT22;13497;48.322;16.204;2024-02-21T06:12:26;7.30;99.90
25640;DHT22;13497;48.322;16.204;2024-02-21T06:14:52;7.30;99.90
25640;DHT22;13497;48.322;16.204;2024-02-21T06:17:17;7.40;99.90
25640;DHT22;13497;48.322;16.204;2024-02-21T06:19:43;7.40;99.90
25640;DHT22;13497;48.322;16.204;2024-02-21T06:22:10;7.40;99.90
25640;DHT22;13497;48.322;16.204;2024-02-21T06:24:36;7.50;99.90
25640;DHT22;13497;48.322;16.204;2024-02-21T06:27:03;7.40;99.90
25640;DHT22;13497;48.322;16.204;2024-02-21T06:29:29;7.40;99.90
25640;DHT22;13497;48.322;16.204;2024-02-21T06:31:54;7.50;99.90
25640;DHT22;13497;48.322;16.204;2024-02-21T06:34:20;7.50;99.90
25640;DHT22;13497;48.322;16.204;2024-02-21T06:36:46;7.50;99.90
25640;DHT22;13497;48.322;16.204;2024-02-21T06:39:11;7.50;99.90
25640;DHT22;13497;48.322;16.204;2024-02-21T06:41:37;7.50;99.90
25640;DHT22;13497;48.322;16.204;2024-02-21T06:44:03;7.50;99.90
25640;DHT22;13497;48.322;16.204;2024-02-21T06:46:29;7.50;99.90
25640;DHT22;13497;48.322;16.204;2024-02-21T06:48:56;7.50;99.90
25640;DHT22;13497;48.322;16.204;2024-02-21T06:51:22;7.60;99.90
25640;DHT22;13497;48.322;16.204;2024-02-21T06:53:48;7.60;99.90
25640;DHT22;13497;48.322;16.204;2024-02-21T06:56:14;7.60;99.90
25640;DHT22;13497;48.322;16.204;2024-02-21T06:58:39;7.70;99.90
25640;DHT22;13497;48.322;16.204;2024-02-21T07:01:06;7.70;99.90
25640;DHT22;13497;48.322;16.204;2024-02-21T07:03:31;7.80;99.90
25640;DHT22;13497;48.322;16.204;2024-02-21T07:05:57;7.80;99.90
25640;DHT22;13497;48.322;16.204;2024-02-21T07:08:22;8.00;99.90
25640;DHT22;13497;48.322;16.204;2024-02-21T07:10:48;8.00;99.90
25640;DHT22;13497;48.322;16.204;2024-02-21T07:13:14;8.10;99.90
25640;DHT22;13497;48.322;16.204;2024-02-21T07:15:41;8.10;99.90
25640;DHT22;13497;48.322;16.204;2024-02-21T07:18:07;8.10;99.90
25640;DHT22;13497;48.322;16.204;2024-02-21T07:20:33;8.20;99.90
25640;DHT22;13497;48.322;16.204;2024-02-21T07:23:07;8.30;99.90
25640;DHT22;13497;48.322;16.204;2024-02-21T07:25:32;8.30;99.90
25640;DHT22;13497;48.322;16.204;2024-02-21T07:27:58;8.40;99.90
25640;DHT22;13497;48.322;16.204;2024-02-21T07:30:24;8.50;99.90
25640;DHT22;13497;48.322;16.204;2024-02-21T07:32:50;8.50;99.90
25640;DHT22;13497;48.322;16.204;2024-02-21T07:35:17;8.60;99.90
25640;DHT22;13497;48.322;16.204;2024-02-21T07:37:43;8.60;99.90
25640;DHT22;13497;48.322;16.204;2024-02-21T07:40:16;8.60;99.90
25640;DHT22;13497;48.322;16.204;2024-02-21T07:42:42;8.70;99.90
25640;DHT22;13497;48.322;16.204;2024-02-21T07:45:08;8.70;99.90
25640;DHT22;13497;48.322;16.204;2024-02-21T07:47:36;8.80;99.90
25640;DHT22;13497;48.322;16.204;2024-02-21T07:50:06;8.90;99.90
25640;DHT22;13497;48.322;16.204;2024-02-21T07:52:32;9.00;99.90
25640;DHT22;13497;48.322;16.204;2024-02-21T07:54:58;9.00;99.90
25640;DHT22;13497;48.322;16.204;2024-02-21T07:57:23;9.20;99.90
25640;DHT22;13497;48.322;16.204;2024-02-21T07:59:49;9.20;99.90
25640;DHT22;13497;48.322;16.204;2024-02-21T08:02:15;9.30;99.90
25640;DHT22;13497;48.322;16.204;2024-02-21T08:04:41;9.30;99.90
25640;DHT22;13497;48.322;16.204;2024-02-21T08:07:07;9.30;99.90
25640;DHT22;13497;48.322;16.204;2024-02-21T08:09:33;9.40;99.90
25640;DHT22;13497;48.322;16.204;2024-02-21T08:11:58;9.50;99.90
25640;DHT22;13497;48.322;16.204;2024-02-21T08:14:24;9.70;99.90
25640;DHT22;13497;48.322;16.204;2024-02-21T08:16:53;9.80;99.90
25640;DHT22;13497;48.322;16.204;2024-02-21T08:19:20;9.80;99.90
25640;DHT22;13497;48.322;16.204;2024-02-21T08:21:46;9.90;99.90
25640;DHT22;13497;48.322;16.204;2024-02-21T08:24:14;10.00;99.90
25640;DHT22;13497;48.322;16.204;2024-02-21T08:26:44;10.00;99.90
25640;DHT22;13497;48.322;16.204;2024-02-21T08:29:12;10.10;99.90
25640;DHT22;13497;48.322;16.204;2024-02-21T08:31:38;10.10;99.90
25640;DHT22;13497;48.322;16.204;2024-02-21T08:34:04;10.10;99.90
25640;DHT22;13497;48.322;16.204;2024-02-21T08:36:31;10.20;99.90
25640;DHT22;13497;48.322;16.204;2024-02-21T08:38:58;10.10;99.90
25640;DHT22;13497;48.322;16.204;2024-02-21T08:41:24;10.20;99.90
25640;DHT22;13497;48.322;16.204;2024-02-21T08:43:54;10.10;99.90
25640;DHT22;13497;48.322;16.204;2024-02-21T08:46:20;10.00;99.90
25640;DHT22;13497;48.322;16.204;2024-02-21T08:48:46;10.00;99.90
25640;DHT22;13497;48.322;16.204;2024-02-21T08:51:15;10.10;99.90
25640;DHT22;13497;48.322;16.204;2024-02-21T08:53:41;10.10;99.90
25640;DHT22;13497;48.322;16.204;2024-02-21T08:56:07;10.20;99.90
25640;DHT22;13497;48.322;16.204;2024-02-21T08:58:39;10.30;99.90
25640;DHT22;13497;48.322;16.204;2024-02-21T09:01:08;10.50;99.90
25640;DHT22;13497;48.322;16.204;2024-02-21T09:03:37;10.70;99.90
25640;DHT22;13497;48.322;16.204;2024-02-21T09:06:04;10.80;99.90
25640;DHT22;13497;48.322;16.204;2024-02-21T09:08:30;10.90;99.90
25640;DHT22;13497;48.322;16.204;2024-02-21T09:10:55;11.00;99.90
25640;DHT22;13497;48.322;16.204;2024-02-21T09:13:21;11.20;99.90
25640;DHT22;13497;48.322;16.204;2024-02-21T09:15:50;11.20;99.90
25640;DHT22;13497;48.322;16.204;2024-02-21T09:18:16;11.30;99.90
25640;DHT22;13497;48.322;16.204;2024-02-21T09:20:42;11.30;99.90
25640;DHT22;13497;48.322;16.204;2024-02-21T09:23:08;11.30;99.90
25640;DHT22;13497;48.322;16.204;2024-02-21T09:25:34;11.40;99.90
25640;DHT22;13497;48.322;16.204;2024-02-21T09:28:01;11.40;99.90
25640;DHT22;13497;48.322;16.204;2024-02-21T09:30:27;11.40;99.90
25640;DHT22;13497;48.322;16.204;2024-02-21T09:32:53;11.40;99.90
25640;DHT22;13497;48.322;16.204;2024-02-21T09:35:18;11.60;99.90
25640;DHT22;13497;48.322;16.204;2024-02-21T09:37:44;11.60;99.90
25640;DHT22;13497;48.322;16.204;2024-02-21T09:40:10;11.70;99.90
25640;DHT22;13497;48.322;16.204;2024-02-21T09:42:41;11.80;99.90
25640;DHT22;13497;48.322;16.204;2024-02-21T09:50:35;11.30;99.90
25640;DHT22;13497;48.322;16.204;2024-02-21T09:53:01;11.20;99.90
25640;DHT22;13497;48.322;16.204;2024-02-21T09:55:29;11.20;99.90
25640;DHT22;13497;48.322;16.204;2024-02-21T09:57:58;11.10;99.90
25640;DHT22;13497;48.322;16.204;2024-02-21T10:00:24;11.10;99.90
25640;DHT22;13497;48.322;16.204;2024-02-21T10:02:50;11.10;99.90
25640;DHT22;13497;48.322;16.204;2024-02-21T10:05:16;11.20;99.90
25640;DHT22;13497;48.322;16.204;2024-02-21T10:07:43;11.50;99.90
25640;DHT22;13497;48.322;16.204;2024-02-21T10:10:09;11.70;99.90
25640;DHT22;13497;48.322;16.204;2024-02-21T10:12:35;11.90;99.90
25640;DHT22;13497;48.322;16.204;2024-02-21T10:15:05;11.90;99.90
25640;DHT22;13497;48.322;16.204;2024-02-21T10:17:34;12.00;99.90
25640;DHT22;13497;48.322;16.204;2024-02-21T10:20:11;12.10;99.90
25640;DHT22;13497;48.322;16.204;2024-02-21T10:22:38;12.10;99.90
25640;DHT22;13497;48.322;16.204;2024-02-21T10:25:14;12.10;99.90
25640;DHT22;13497;48.322;16.204;2024-02-21T10:27:40;12.00;99.90
25640;DHT22;13497;48.322;16.204;2024-02-21T10:30:14;12.00;99.90
25640;DHT22;13497;48.322;16.204;2024-02-21T10:32:53;12.00;99.90
25640;DHT22;13497;48.322;16.204;2024-02-21T10:38:11;12.10;99.90
25640;DHT22;13497;48.322;16.204;2024-02-21T10:40:36;12.20;99.90
25640;DHT22;13497;48.322;16.204;2024-02-21T10:43:02;12.10;99.80
25640;DHT22;13497;48.322;16.204;2024-02-21T10:45:36;12.00;99.40
25640;DHT22;13497;48.322;16.204;2024-02-21T10:48:12;11.80;99.90
25640;DHT22;13497;48.322;16.204;2024-02-21T10:50:57;11.70;99.40
25640;DHT22;13497;48.322;16.204;2024-02-21T10:56:01;11.60;99.90
25640;DHT22;13497;48.322;16.204;2024-02-21T10:58:31;11.50;99.90
25640;DHT22;13497;48.322;16.204;2024-02-21T11:00:57;11.40;99.90
25640;DHT22;13497;48.322;16.204;2024-02-21T11:03:23;11.30;99.90
25640;DHT22;13497;48.322;16.204;2024-02-21T11:05:49;11.20;99.90
25640;DHT22;13497;48.322;16.204;2024-02-21T11:08:15;11.30;99.90
25640;DHT22;13497;48.322;16.204;2024-02-21T11:10:45;11.30;99.90
25640;DHT22;13497;48.322;16.204;2024-02-21T11:13:11;11.40;99.90
25640;DHT22;13497;48.322;16.204;2024-02-21T11:15:36;11.60;99.90
25640;DHT22;13497;48.322;16.204;2024-02-21T11:18:02;11.60;99.90
25640;DHT22;13497;48.322;16.204;2024-02-21T11:20:38;11.60;99.90
25640;DHT22;13497;48.322;16.204;2024-02-21T11:23:04;11.70;99.90
25640;DHT22;13497;48.322;16.204;2024-02-21T11:25:30;11.70;99.80
25640;DHT22;13497;48.322;16.204;2024-02-21T11:28:03;11.60;99.70
25640;DHT22;13497;48.322;16.204;2024-02-21T11:30:32;11.70;99.80
25640;DHT22;13497;48.322;16.204;2024-02-21T11:33:06;11.60;99.60
25640;DHT22;13497;48.322;16.204;2024-02-21T11:35:35;11.60;99.90
25640;DHT22;13497;48.322;16.204;2024-02-21T11:38:13;11.60;99.90
25640;DHT22;13497;48.322;16.204;2024-02-21T11:40:45;11.70;99.80
25640;DHT22;13497;48.322;16.204;2024-02-21T11:43:11;11.80;99.90
25640;DHT22;13497;48.322;16.204;2024-02-21T11:45:37;11.70;99.80
25640;DHT22;13497;48.322;16.204;2024-02-21T11:48:06;11.80;99.90
25640;DHT22;13497;48.322;16.204;2024-02-21T11:50:32;11.90;99.50
25640;DHT22;13497;48.322;16.204;2024-02-21T11:52:58;11.90;99.70
25640;DHT22;13497;48.322;16.204;2024-02-21T11:55:24;11.80;99.80
25640;DHT22;13497;48.322;16.204;2024-02-21T11:57:49;11.80;99.50
25640;DHT22;13497;48.322;16.204;2024-02-21T12:00:16;11.80;99.40
25640;DHT22;13497;48.322;16.204;2024-02-21T12:02:43;11.80;99.40
25640;DHT22;13497;48.322;16.204;2024-02-21T12:05:10;11.80;99.30
25640;DHT22;13497;48.322;16.204;2024-02-21T12:07:37;11.90;99.30
25640;DHT22;13497;48.322;16.204;2024-02-21T12:10:11;11.90;99.50
25640;DHT22;13497;48.322;16.204;2024-02-21T12:12:37;12.00;99.30
25640;DHT22;13497;48.322;16.204;2024-02-21T12:15:04;12.00;99.40
25640;DHT22;13497;48.322;16.204;2024-02-21T12:17:34;12.10;99.30
25640;DHT22;13497;48.322;16.204;2024-02-21T12:20:03;12.10;99.20
25640;DHT22;13497;48.322;16.204;2024-02-21T12:22:37;12.20;99.00
25640;DHT22;13497;48.322;16.204;2024-02-21T12:25:23;12.20;99.40
25640;DHT22;13497;48.322;16.204;2024-02-21T12:27:51;12.30;99.30
25640;DHT22;13497;48.322;16.204;2024-02-21T12:30:17;12.30;98.90
25640;DHT22;13497;48.322;16.204;2024-02-21T12:32:43;12.40;99.00
25640;DHT22;13497;48.322;16.204;2024-02-21T12:35:09;12.30;97.90
25640;DHT22;13497;48.322;16.204;2024-02-21T12:37:35;12.30;98.40
25640;DHT22;13497;48.322;16.204;2024-02-21T12:40:01;12.30;97.90
25640;DHT22;13497;48.322;16.204;2024-02-21T12:42:26;12.40;97.90
25640;DHT22;13497;48.322;16.204;2024-02-21T12:44:54;12.40;97.90
25640;DHT22;13497;48.322;16.204;2024-02-21T12:47:19;12.50;98.20
25640;DHT22;13497;48.322;16.204;2024-02-21T12:49:49;12.60;97.80
25640;DHT22;13497;48.322;16.204;2024-02-21T12:52:15;12.60;97.40
25640;DHT22;13497;48.322;16.204;2024-02-21T12:54:40;12.70;97.80
25640;DHT22;13497;48.322;16.204;2024-02-21T12:57:08;12.80;98.00
25640;DHT22;13497;48.322;16.204;2024-02-21T12:59:33;12.80;97.20
25640;DHT22;13497;48.322;16.204;2024-02-21T13:01:59;12.80;96.90
25640;DHT22;13497;48.322;16.204;2024-02-21T13:04:25;12.90;96.40
25640;DHT22;13497;48.322;16.204;2024-02-21T13:06:50;12.80;96.50
25640;DHT22;13497;48.322;16.204;2024-02-21T13:09:16;12.70;96.10
25640;DHT22;13497;48.322;16.204;2024-02-21T13:11:42;12.60;96.50
25640;DHT22;13497;48.322;16.204;2024-02-21T13:14:09;12.70;96.60
25640;DHT22;13497;48.322;16.204;2024-02-21T13:16:35;12.70;96.60
25640;DHT22;13497;48.322;16.204;2024-02-21T13:19:05;12.70;96.50
25640;DHT22;13497;48.322;16.204;2024-02-21T13:21:31;12.80;95.90
25640;DHT22;13497;48.322;16.204;2024-02-21T13:23:56;12.70;95.60
25640;DHT22;13497;48.322;16.204;2024-02-21T13:26:22;12.80;96.20
25640;DHT22;13497;48.322;16.204;2024-02-21T13:28:48;13.00;96.00
25640;DHT22;13497;48.322;16.204;2024-02-21T13:31:14;13.00;95.40
25640;DHT22;13497;48.322;16.204;2024-02-21T13:33:42;13.00;95.60
25640;DHT22;13497;48.322;16.204;2024-02-21T13:36:09;12.90;96.00
25640;DHT22;13497;48.322;16.204;2024-02-21T13:38:35;12.80;95.80
25640;DHT22;13497;48.322;16.204;2024-02-21T13:41:02;12.70;96.00
25640;DHT22;13497;48.322;16.204;2024-02-21T13:43:28;12.80;95.80
25640;DHT22;13497;48.322;16.204;2024-02-21T13:46:00;12.90;95.90
25640;DHT22;13497;48.322;16.204;2024-02-21T13:48:28;13.00;96.00
25640;DHT22;13497;48.322;16.204;2024-02-21T13:50:54;13.00;96.20
25640;DHT22;13497;48.322;16.204;2024-02-21T13:53:20;13.00;95.90
25640;DHT22;13497;48.322;16.204;2024-02-21T13:55:47;12.90;95.50
25640;DHT22;13497;48.322;16.204;2024-02-21T13:58:12;12.90;95.40
25640;DHT22;13497;48.322;16.204;2024-02-21T14:00:38;12.90;95.50
25640;DHT22;13497;48.322;16.204;2024-02-21T14:03:04;12.70;95.40
25640;DHT22;13497;48.322;16.204;2024-02-21T14:05:30;12.70;95.70
25640;DHT22;13497;48.322;16.204;2024-02-21T14:07:55;12.60;96.30
25640;DHT22;13497;48.322;16.204;2024-02-21T14:10:22;12.60;96.20
25640;DHT22;13497;48.322;16.204;2024-02-21T14:12:48;12.70;96.30
25640;DHT22;13497;48.322;16.204;2024-02-21T14:15:14;12.80;96.50
25640;DHT22;13497;48.322;16.204;2024-02-21T14:17:40;12.90;95.80
25640;DHT22;13497;48.322;16.204;2024-02-21T14:20:09;13.00;95.80
25640;DHT22;13497;48.322;16.204;2024-02-21T14:22:35;13.10;95.70
25640;DHT22;13497;48.322;16.204;2024-02-21T14:25:03;13.20;95.20
25640;DHT22;13497;48.322;16.204;2024-02-21T14:27:31;13.20;95.20
25640;DHT22;13497;48.322;16.204;2024-02-21T14:29:57;13.30;95.00
25640;DHT22;13497;48.322;16.204;2024-02-21T14:32:23;13.30;94.50
25640;DHT22;13497;48.322;16.204;2024-02-21T14:34:49;13.30;94.80
25640;DHT22;13497;48.322;16.204;2024-02-21T14:37:15;13.30;94.80
25640;DHT22;13497;48.322;16.204;2024-02-21T14:39:41;13.20;94.80
25640;DHT22;13497;48.322;16.204;2024-02-21T14:42:07;13.10;94.50
25640;DHT22;13497;48.322;16.204;2024-02-21T14:44:35;13.00;95.10
25640;DHT22;13497;48.322;16.204;2024-02-21T14:47:01;12.90;94.80
25640;DHT22;13497;48.322;16.204;2024-02-21T14:49:29;12.90;94.70
25640;DHT22;13497;48.322;16.204;2024-02-21T14:51:54;12.80;95.10
25640;DHT22;13497;48.322;16.204;2024-02-21T14:54:20;12.80;95.20
25640;DHT22;13497;48.322;16.204;2024-02-21T14:56:46;12.80;94.90
25640;DHT22;13497;48.322;16.204;2024-02-21T14:59:14;12.70;94.20
25640;DHT22;13497;48.322;16.204;2024-02-21T15:01:42;12.70;94.20
25640;DHT22;13497;48.322;16.204;2024-02-21T15:04:07;12.60;94.50
25640;DHT22;13497;48.322;16.204;2024-02-21T15:06:33;12.60;94.60
25640;DHT22;13497;48.322;16.204;2024-02-21T15:09:01;12.60;94.50
25640;DHT22;13497;48.322;16.204;2024-02-21T15:11:28;12.60;94.90
25640;DHT22;13497;48.322;16.204;2024-02-21T15:13:54;12.60;94.60
25640;DHT22;13497;48.322;16.204;2024-02-21T15:16:19;12.50;94.80
25640;DHT22;13497;48.322;16.204;2024-02-21T15:18:45;12.50;94.80
25640;DHT22;13497;48.322;16.204;2024-02-21T15:21:11;12.40;94.90
25640;DHT22;13497;48.322;16.204;2024-02-21T15:23:39;12.30;95.20
25640;DHT22;13497;48.322;16.204;2024-02-21T15:26:05;12.20;95.40
25640;DHT22;13497;48.322;16.204;2024-02-21T15:28:31;12.20;95.30
25640;DHT22;13497;48.322;16.204;2024-02-21T15:30:57;12.10;95.70
25640;DHT22;13497;48.322;16.204;2024-02-21T15:33:23;12.00;95.90